• Join FlightAware (Why Join?)
  • Login
  • US Flag 
04:36AM EDT


 

Airport Tracker/Info


-or-


 

Live Flight TrackerFlight Track Log ✈ EGF4247 ✈ 10-Jun-2013 ✈ KBUF - KORD

Flight Track Log - Related Links

Times and Time Zones

All times are in EDT time to prevent confusion due to time zone crossing. See the EGF4247 flight status page for this flight to view local times or setup timezone preferences in your user account.

Time Position Orientation Groundspeed Altitude Reporting Facility
EDT Latitude Longitude Course Direction KTS MPH feet Rate Location/Type
03:58PM 42.9500 -78.7167 270° West 152 175 1,300  Level Buffalo TRACON
03:58PM 42.9833 -78.6833 36° Northeast 160 184 2,400 1,620 Climbing Buffalo TRACON
03:59PM 43.0333 -78.6667 14° North 244 281 4,100 1,680 Climbing Buffalo TRACON
04:00PM 42.9521 -79.0920 277° West  Level FlightAware Approximate
04:00PM 43.0500 -78.7500 285° West 262 302 5,600  Level Buffalo TRACON
04:01PM 42.9626 -79.2173 277° West  Level FlightAware Approximate
04:01PM 43.0500 -78.8500 270° West 262 302 7,700  Level Buffalo TRACON
04:02PM 42.9667 -79.3431 270° West  Level FlightAware Approximate
04:02PM 43.0333 -78.9333 255° West 270 311 9,600  Level Toronto Center
04:03PM 42.9667 -79.4692 270° West  Level FlightAware Approximate
04:03PM 43.0333 -79.0167 270° West 280 322 11,000  Level Toronto Center
04:04PM 43.0333 -79.1500 270° West 310 357 11,900 900 Climbing Toronto Center
04:05PM 43.0333 -79.2833 270° West 340 391 12,900 960 Climbing Toronto Center
04:06PM 43.0333 -79.4000 270° West 360 414 13,900 960 Climbing Toronto Center
04:07PM 43.0333 -79.5667 270° West 370 426 14,900 900 Climbing Toronto Center
04:08PM 43.0333 -79.7000 270° West 370 426 15,800 1,020 Climbing Toronto Center
04:09PM 43.0333 -79.8333 270° West 370 426 17,000 1,620 Climbing Toronto Center
04:11PM 43.0333 -80.0833 270° West 330 380 20,800 1,560 Climbing Toronto Center
04:12PM 43.0333 -80.2000 270° West 330 380 21,800 960 Climbing Toronto Center
04:13PM 43.0333 -80.3333 270° West 340 391 22,800 900 Climbing Toronto Center
04:14PM 43.0333 -80.4833 270° West 350 403 23,700 900 Climbing Toronto Center
04:15PM 43.0333 -80.6167 270° West 350 403 24,700 900 Climbing Toronto Center
04:16PM 43.0000 -80.7500 251° West 350 403 25,600 900 Climbing Toronto Center
04:17PM 42.9667 -80.8667 249° West 350 403 26,500 900 Climbing Toronto Center
04:18PM 42.9667 -81.0000 270° West 360 414 27,500 900 Climbing Toronto Center
04:19PM 42.9667 -81.1333 270° West 370 426 28,400 900 Climbing Toronto Center
04:20PM 42.9667 -81.3000 270° West 370 426 29,400 900 Climbing Toronto Center
04:21PM 42.9667 -81.4333 270° West 380 437 30,300 1,320 Climbing Toronto Center
04:22PM 42.9833 -81.6000 278° West 380 437 32,100 1,500 Climbing Toronto Center
04:23PM 42.9833 -81.7000 270° West 360 414 33,400 1,080 Climbing Toronto Center
04:24PM 42.9833 -81.8500 270° West 350 403 34,300 840 Climbing Toronto Center
04:25PM 42.9667 -81.9833 260° West 360 414 35,100 600 Climbing Toronto Center
04:26PM 42.9667 -82.1167 270° West 370 426 35,500 420 Climbing Toronto Center
04:27PM 42.9667 -82.2833 270° West 380 437 36,000 240 Climbing Toronto Center
04:28PM 42.9667 -82.4167 270° West 390 449 36,000  Level Toronto Center
04:29PM 42.9833 -82.5667 279° West 410 472 36,000  Level Toronto Center
04:30PM 42.9819 -82.6264 268° West 406 467 36,000  Level Cleveland Center
04:31PM 42.9789 -82.7881 269° West 421 484 36,000  Level Cleveland Center
04:32PM 42.9778 -82.9528 270° West 426 490 36,000  Level Cleveland Center
04:33PM 42.9744 -83.1117 268° West 426 490 36,000  Level Cleveland Center
04:34PM 42.9744 -83.2931 270° West 432 497 36,000  Level Cleveland Center
04:35PM 42.9706 -83.4575 268° West 437 503 36,000  Level Cleveland Center
04:36PM 42.9500 -83.7167 264° West 430 495 36,000  Level Toronto Center
04:37PM 42.9644 -83.7564 296° West 427 491 36,000  Level Chicago Center
04:38PM 42.9500 -83.9172 263° West 426 490 36,000  Level Chicago Center
04:39PM 42.9347 -84.0764 263° West 425 489 36,000  Level Chicago Center
04:40PM 42.9122 -84.2631 261° West 437 503 36,000 -420 Level Cleveland Center
04:41PM 42.8992 -84.4069 263° West 437 503 35,300 -960 Descending Cleveland Center
04:42PM 42.8853 -84.5647 263° West 437 503 34,100 -1,200 Descending Cleveland Center
04:42PM 42.8667 -84.6833 258° West 430 495 33,400 -1,080 Descending Toronto Center
04:43PM 42.8500 -84.8333 261° West 440 506 32,400 -900 Descending Toronto Center
04:44PM 42.8486 -84.9214 269° West 440 506 32,000 -300 Descending Chicago Center
04:45PM 42.8319 -85.0878 262° West 443 510 32,000  Level Chicago Center
04:46PM 42.8117 -85.2683 261° West 410 472 32,000  Level Chicago Center
04:47PM 42.7947 -85.4181 261° West 400 460 32,000 -660 Level Chicago Center
04:48PM 42.7744 -85.5697 260° West 405 466 30,700 -1,800 Descending Chicago Center
04:49PM 42.7469 -85.7164 256° West 400 460 28,400 -2,280 Descending Chicago Center
04:50PM 42.7219 -85.8586 257° West 389 448 26,100 -2,280 Descending Chicago Center
04:51PM 42.6958 -85.9986 256° West 381 438 23,800 -2,160 Descending Chicago Center
04:52PM 42.6692 -86.1444 256° West 392 451 21,700 -1,860 Descending Chicago Center
04:53PM 42.6369 -86.3172 256° West 392 451 20,000 -840 Descending Chicago Center
04:54PM 42.6081 -86.4661 255° West 405 466 20,000 -240 Level Chicago Center
04:55PM 42.5797 -86.6147 256° West 407 468 19,600 -1,260 Descending Chicago Center
04:56PM 42.5492 -86.7714 255° West 397 457 17,400 -1,980 Descending Chicago Center
04:57PM 42.5144 -86.8969 249° West 393 452 15,500 -1,680 Descending Chicago Center
04:58PM 42.4778 -87.0272 249° West 374 430 13,900 -2,040 Descending Chicago Center
04:59PM 42.4417 -87.1558 249° West 310 357 11,400 -2,160 Descending Chicago Center
05:00PM 42.4136 -87.2603 250° West 292 336 9,500 -1,200 Descending Chicago Center
05:01PM 42.3867 -87.3597 250° West 288 331 9,000 -300 Descending Chicago Center
05:02PM 42.3586 -87.4550 248° West 253 291 9,000 -420 Level Chicago Center
05:04PM 42.3286 -87.5222 239° Southwest 213 245 8,200 -900 Descending Chicago Center
05:05PM 42.2875 -87.5731 222° Southwest 203 234 7,200 -660 Descending Chicago Center
05:06PM 42.2456 -87.6225 221° Southwest 203 234 6,900 -780 Descending Chicago Center
05:07PM 42.1908 -87.6808 218° Southwest 210 242 5,600 -1,260 Descending Chicago Center